Home   Weather   Germany   Oelde   Past weeks
Flag for Germany

Past Weather in Oelde, North Rhine-Westphalia, Germany — Yesterday and Last 2 Weeks

Currently: 82 °F. Sunny. (Weather station: Paderborn / Lippstadt, Germany). See more current weather

Past Weather in Oelde — Graph

°F

Oelde Temperature Yesterday

Maximum temperature yesterday: 72 °F (at 3:20 pm)
Minimum temperature yesterday: 55 °F (at 4:50 am)
Average temperature yesterday: 65 °F

High & Low Weather Summary for the Past Weeks

 TemperatureHumidityPressure
High84 °F (Jun 16, 2:50 pm)100% (Jun 4, 2:50 am)30.36 "Hg (Jun 4, 2:50 am)
Low46 °F (Jun 13, 5:50 am)26% (Jun 2, 4:20 pm)29.92 "Hg (Jun 16, 4:20 pm)
Average65 °F71%30.13 "Hg
* Reported Jun 1 4:20 pm — Jun 16 4:20 pm, Oelde. Weather by CustomWeather, © 2021

Note: Actual official high and low records may vary slightly from our data, if they occured in-between our weather recording intervals... More about our weather records

Oelde Weather History for the Previous 24 Hours

Scroll right to see more
 ConditionsComfort  
Time TempWeatherWind HumidityBarometerVisibility
4:20 pm
Wed, Jun 16
84 °FSunny.9 mph40%29.92 "Hg10 mi
3:50 pm84 °FPassing clouds.8 mph37%29.95 "HgN/A
3:20 pm84 °FPassing clouds.8 mph40%29.95 "HgN/A
2:50 pm84 °FPassing clouds.10 mph48%29.95 "HgN/A
2:20 pm81 °FPassing clouds.10 mph51%29.95 "HgN/A
1:50 pm81 °FPassing clouds.10 mph51%29.95 "HgN/A
1:20 pm81 °FPassing clouds.10 mph51%29.98 "HgN/A
12:50 pm79 °FPassing clouds.7 mph54%29.98 "HgN/A
12:20 pm77 °FPassing clouds.9 mph61%29.98 "HgN/A
11:50 am77 °FPassing clouds.9 mph54%29.98 "HgN/A
11:20 am75 °FSunny.9 mph57%30.01 "Hg10 mi
10:50 am73 °FSunny.8 mph65%30.01 "Hg10 mi
10:20 am72 °FSunny.10 mph65%30.01 "Hg10 mi
9:50 am70 °FSunny.9 mph64%30.01 "Hg10 mi
9:20 am70 °FPassing clouds.9 mph64%30.01 "HgN/A
8:50 am68 °FPassing clouds.8 mph69%30.01 "HgN/A
8:20 am66 °FSunny.7 mph64%30.04 "Hg10 mi
7:50 am64 °FSunny.6 mph64%30.04 "Hg10 mi
7:20 am63 °FSunny.6 mph64%30.04 "Hg10 mi
6:50 am59 °FSunny.6 mph72%30.04 "Hg10 mi
6:20 am59 °FSunny.8 mph72%30.04 "Hg10 mi
5:50 am59 °FSunny.8 mph68%30.04 "Hg10 mi
5:20 am57 °FSunny.7 mph72%30.07 "Hg10 mi
4:50 am57 °FClear.6 mph72%30.07 "Hg10 mi
4:20 am57 °FClear.6 mph72%30.07 "Hg10 mi
3:50 am57 °FClear.6 mph77%30.07 "Hg10 mi
3:20 am57 °FClear.6 mph77%30.07 "Hg10 mi
2:50 am59 °FClear.6 mph72%30.07 "Hg10 mi
2:20 am59 °FClear.6 mph72%30.07 "Hg10 mi
1:50 am59 °FClear.7 mph72%30.09 "Hg10 mi
1:20 am59 °FClear.6 mph77%30.09 "Hg10 mi
12:50 am57 °FPassing clouds.6 mph82%30.09 "HgN/A
12:20 am59 °FPassing clouds.3 mph77%30.09 "HgN/A
11:50 pm
Tue, Jun 15
61 °FClear.2 mph72%30.09 "Hg10 mi
11:20 pm61 °FPassing clouds.3 mph72%30.09 "HgN/A
10:50 pm63 °FPassing clouds.3 mph64%30.09 "HgN/A
10:20 pm63 °FPassing clouds.3 mph64%30.09 "HgN/A
9:50 pm64 °FPassing clouds.3 mph60%30.09 "HgN/A
9:20 pm66 °FSunny.5 mph56%30.09 "Hg10 mi
8:50 pm68 °FSunny.2 mph56%30.09 "Hg10 mi
8:20 pm70 °FSunny.2 mph53%30.09 "Hg10 mi
7:50 pm70 °FPassing clouds.3 mph50%30.09 "HgN/A
7:20 pm72 °FPassing clouds.5 mph47%30.09 "HgN/A
6:50 pm72 °FPassing clouds.3 mph47%30.09 "HgN/A
6:20 pm72 °FPassing clouds.3 mph50%30.09 "HgN/A
5:50 pm72 °FPassing clouds.5 mph47%30.09 "HgN/A
5:20 pm72 °FPassing clouds.6 mph50%30.12 "HgN/A
Weather by CustomWeather, © 2021

See weather overview